sensor_id;sensor_type;location;lat;lon;timestamp;P1;durP1;ratioP1;P2;durP2;ratioP2
15408;SDS011;7803;48.130;13.788;2023-07-16T00:02:02;7.20;;;6.50;;
15408;SDS011;7803;48.130;13.788;2023-07-16T00:05:06;7.10;;;6.40;;
15408;SDS011;7803;48.130;13.788;2023-07-16T00:08:08;6.80;;;6.13;;
15408;SDS011;7803;48.130;13.788;2023-07-16T00:11:10;6.40;;;5.40;;
15408;SDS011;7803;48.130;13.788;2023-07-16T00:14:12;6.68;;;6.07;;
15408;SDS011;7803;48.130;13.788;2023-07-16T00:17:14;6.22;;;5.72;;
15408;SDS011;7803;48.130;13.788;2023-07-16T00:20:18;7.00;;;6.30;;
15408;SDS011;7803;48.130;13.788;2023-07-16T00:23:20;6.88;;;5.97;;
15408;SDS011;7803;48.130;13.788;2023-07-16T00:26:22;6.20;;;5.70;;
15408;SDS011;7803;48.130;13.788;2023-07-16T00:29:24;7.03;;;6.40;;
15408;SDS011;7803;48.130;13.788;2023-07-16T00:32:26;6.25;;;5.65;;
15408;SDS011;7803;48.130;13.788;2023-07-16T00:35:30;6.55;;;5.95;;
15408;SDS011;7803;48.130;13.788;2023-07-16T00:38:32;6.80;;;6.20;;
15408;SDS011;7803;48.130;13.788;2023-07-16T00:41:34;6.13;;;5.63;;
15408;SDS011;7803;48.130;13.788;2023-07-16T00:44:35;6.45;;;5.85;;
15408;SDS011;7803;48.130;13.788;2023-07-16T00:47:37;6.57;;;5.80;;
15408;SDS011;7803;48.130;13.788;2023-07-16T00:50:41;6.63;;;6.03;;
15408;SDS011;7803;48.130;13.788;2023-07-16T00:53:44;5.88;;;5.30;;
15408;SDS011;7803;48.130;13.788;2023-07-16T00:56:47;6.40;;;5.78;;
15408;SDS011;7803;48.130;13.788;2023-07-16T00:59:49;6.30;;;5.70;;
15408;SDS011;7803;48.130;13.788;2023-07-16T01:02:51;5.80;;;5.30;;
15408;SDS011;7803;48.130;13.788;2023-07-16T01:05:55;6.78;;;6.05;;
15408;SDS011;7803;48.130;13.788;2023-07-16T01:09:03;5.80;;;5.30;;
15408;SDS011;7803;48.130;13.788;2023-07-16T01:12:08;6.40;;;5.80;;
15408;SDS011;7803;48.130;13.788;2023-07-16T01:15:11;5.97;;;5.47;;
15408;SDS011;7803;48.130;13.788;2023-07-16T01:18:13;6.10;;;5.60;;
15408;SDS011;7803;48.130;13.788;2023-07-16T01:21:16;5.82;;;5.38;;
15408;SDS011;7803;48.130;13.788;2023-07-16T01:24:34;6.30;;;5.70;;
15408;SDS011;7803;48.130;13.788;2023-07-16T01:27:59;5.82;;;5.22;;
15408;SDS011;7803;48.130;13.788;2023-07-16T01:31:24;6.63;;;5.65;;
15408;SDS011;7803;48.130;13.788;2023-07-16T01:34:28;5.90;;;5.40;;
15408;SDS011;7803;48.130;13.788;2023-07-16T01:37:33;6.20;;;5.60;;
15408;SDS011;7803;48.130;13.788;2023-07-16T01:40:35;6.10;;;5.50;;
15408;SDS011;7803;48.130;13.788;2023-07-16T01:43:37;6.30;;;5.70;;
15408;SDS011;7803;48.130;13.788;2023-07-16T01:46:40;5.78;;;5.10;;
15408;SDS011;7803;48.130;13.788;2023-07-16T01:49:42;5.18;;;4.78;;
15408;SDS011;7803;48.130;13.788;2023-07-16T01:52:44;6.32;;;5.07;;
15408;SDS011;7803;48.130;13.788;2023-07-16T01:55:46;6.35;;;4.50;;
15408;SDS011;7803;48.130;13.788;2023-07-16T01:58:48;5.95;;;5.00;;
15408;SDS011;7803;48.130;13.788;2023-07-16T02:01:51;5.45;;;4.90;;
15408;SDS011;7803;48.130;13.788;2023-07-16T02:04:53;5.18;;;4.68;;
15408;SDS011;7803;48.130;13.788;2023-07-16T02:07:55;5.35;;;4.85;;
15408;SDS011;7803;48.130;13.788;2023-07-16T02:10:57;5.50;;;4.82;;
15408;SDS011;7803;48.130;13.788;2023-07-16T02:13:59;7.85;;;5.32;;
15408;SDS011;7803;48.130;13.788;2023-07-16T02:17:03;6.63;;;5.13;;
15408;SDS011;7803;48.130;13.788;2023-07-16T02:20:05;5.45;;;4.50;;
15408;SDS011;7803;48.130;13.788;2023-07-16T02:23:10;5.20;;;4.35;;
15408;SDS011;7803;48.130;13.788;2023-07-16T02:26:12;6.30;;;4.82;;
15408;SDS011;7803;48.130;13.788;2023-07-16T02:29:14;4.85;;;4.45;;
15408;SDS011;7803;48.130;13.788;2023-07-16T02:32:17;5.97;;;4.63;;
15408;SDS011;7803;48.130;13.788;2023-07-16T02:35:19;4.80;;;4.07;;
15408;SDS011;7803;48.130;13.788;2023-07-16T02:38:21;6.72;;;4.43;;
15408;SDS011;7803;48.130;13.788;2023-07-16T02:41:23;6.28;;;4.35;;
15408;SDS011;7803;48.130;13.788;2023-07-16T02:44:25;5.03;;;4.40;;
15408;SDS011;7803;48.130;13.788;2023-07-16T02:47:28;4.60;;;4.20;;
15408;SDS011;7803;48.130;13.788;2023-07-16T02:50:31;6.13;;;5.00;;
15408;SDS011;7803;48.130;13.788;2023-07-16T02:53:35;6.97;;;4.80;;
15408;SDS011;7803;48.130;13.788;2023-07-16T02:56:37;5.32;;;4.43;;
15408;SDS011;7803;48.130;13.788;2023-07-16T02:59:39;5.53;;;4.10;;
15408;SDS011;7803;48.130;13.788;2023-07-16T03:02:42;4.97;;;4.15;;
15408;SDS011;7803;48.130;13.788;2023-07-16T03:05:44;7.25;;;3.55;;
15408;SDS011;7803;48.130;13.788;2023-07-16T03:08:46;5.78;;;3.65;;
15408;SDS011;7803;48.130;13.788;2023-07-16T03:11:48;4.90;;;4.20;;
15408;SDS011;7803;48.130;13.788;2023-07-16T03:14:50;6.40;;;3.97;;
15408;SDS011;7803;48.130;13.788;2023-07-16T03:17:55;7.15;;;3.70;;
15408;SDS011;7803;48.130;13.788;2023-07-16T03:20:57;4.95;;;3.63;;
15408;SDS011;7803;48.130;13.788;2023-07-16T03:23:59;4.30;;;3.90;;
15408;SDS011;7803;48.130;13.788;2023-07-16T03:27:01;5.35;;;3.88;;
15408;SDS011;7803;48.130;13.788;2023-07-16T03:30:04;4.68;;;3.60;;
15408;SDS011;7803;48.130;13.788;2023-07-16T03:33:08;4.03;;;3.63;;
15408;SDS011;7803;48.130;13.788;2023-07-16T03:36:10;5.47;;;3.83;;
15408;SDS011;7803;48.130;13.788;2023-07-16T03:39:12;3.92;;;3.53;;
15408;SDS011;7803;48.130;13.788;2023-07-16T03:42:14;4.20;;;3.40;;
15408;SDS011;7803;48.130;13.788;2023-07-16T03:45:16;4.45;;;3.30;;
15408;SDS011;7803;48.130;13.788;2023-07-16T03:48:19;3.55;;;3.20;;
15408;SDS011;7803;48.130;13.788;2023-07-16T03:51:21;3.13;;;2.83;;
15408;SDS011;7803;48.130;13.788;2023-07-16T03:54:23;4.45;;;3.30;;
15408;SDS011;7803;48.130;13.788;2023-07-16T03:57:26;4.18;;;3.00;;
15408;SDS011;7803;48.130;13.788;2023-07-16T04:00:28;3.88;;;3.00;;
15408;SDS011;7803;48.130;13.788;2023-07-16T04:03:32;3.53;;;3.10;;
15408;SDS011;7803;48.130;13.788;2023-07-16T04:06:34;5.82;;;3.50;;
15408;SDS011;7803;48.130;13.788;2023-07-16T04:09:36;5.15;;;3.10;;
15408;SDS011;7803;48.130;13.788;2023-07-16T04:12:39;4.38;;;3.10;;
15408;SDS011;7803;48.130;13.788;2023-07-16T04:15:41;3.08;;;2.70;;
15408;SDS011;7803;48.130;13.788;2023-07-16T04:18:44;3.35;;;2.78;;
15408;SDS011;7803;48.130;13.788;2023-07-16T04:21:46;2.80;;;2.60;;
15408;SDS011;7803;48.130;13.788;2023-07-16T04:24:48;3.17;;;2.88;;
15408;SDS011;7803;48.130;13.788;2023-07-16T04:27:50;3.15;;;2.85;;
15408;SDS011;7803;48.130;13.788;2023-07-16T04:30:52;4.35;;;3.05;;
15408;SDS011;7803;48.130;13.788;2023-07-16T04:33:55;3.95;;;2.90;;
15408;SDS011;7803;48.130;13.788;2023-07-16T04:36:57;4.30;;;2.97;;
15408;SDS011;7803;48.130;13.788;2023-07-16T04:39:59;3.20;;;2.80;;
15408;SDS011;7803;48.130;13.788;2023-07-16T04:43:01;3.30;;;2.92;;
15408;SDS011;7803;48.130;13.788;2023-07-16T04:46:03;3.90;;;2.78;;
15408;SDS011;7803;48.130;13.788;2023-07-16T04:49:06;3.00;;;2.70;;
15408;SDS011;7803;48.130;13.788;2023-07-16T04:52:08;3.53;;;2.45;;
15408;SDS011;7803;48.130;13.788;2023-07-16T04:55:10;2.88;;;2.50;;
15408;SDS011;7803;48.130;13.788;2023-07-16T04:58:13;3.08;;;2.50;;
15408;SDS011;7803;48.130;13.788;2023-07-16T05:01:15;2.55;;;2.35;;
15408;SDS011;7803;48.130;13.788;2023-07-16T05:04:18;3.47;;;2.60;;
15408;SDS011;7803;48.130;13.788;2023-07-16T05:07:20;2.88;;;2.45;;
15408;SDS011;7803;48.130;13.788;2023-07-16T05:10:23;2.75;;;2.55;;
15408;SDS011;7803;48.130;13.788;2023-07-16T05:13:25;3.38;;;2.78;;
15408;SDS011;7803;48.130;13.788;2023-07-16T05:16:27;3.58;;;2.65;;
15408;SDS011;7803;48.130;13.788;2023-07-16T05:19:30;2.60;;;2.40;;
15408;SDS011;7803;48.130;13.788;2023-07-16T05:22:32;2.80;;;2.60;;
15408;SDS011;7803;48.130;13.788;2023-07-16T05:25:34;3.30;;;2.55;;
15408;SDS011;7803;48.130;13.788;2023-07-16T05:28:36;3.22;;;2.90;;
15408;SDS011;7803;48.130;13.788;2023-07-16T05:31:38;4.28;;;2.80;;
15408;SDS011;7803;48.130;13.788;2023-07-16T05:34:41;4.05;;;2.70;;
15408;SDS011;7803;48.130;13.788;2023-07-16T05:37:43;3.60;;;2.65;;
15408;SDS011;7803;48.130;13.788;2023-07-16T05:40:46;3.40;;;2.40;;
15408;SDS011;7803;48.130;13.788;2023-07-16T05:43:48;2.67;;;2.47;;
15408;SDS011;7803;48.130;13.788;2023-07-16T05:46:50;3.75;;;2.53;;
15408;SDS011;7803;48.130;13.788;2023-07-16T05:49:53;2.50;;;2.30;;
15408;SDS011;7803;48.130;13.788;2023-07-16T05:52:55;2.80;;;2.30;;
15408;SDS011;7803;48.130;13.788;2023-07-16T05:55:57;4.72;;;2.75;;
15408;SDS011;7803;48.130;13.788;2023-07-16T05:58:59;3.88;;;2.50;;
15408;SDS011;7803;48.130;13.788;2023-07-16T06:02:01;6.18;;;2.65;;
15408;SDS011;7803;48.130;13.788;2023-07-16T06:05:05;6.10;;;2.95;;
15408;SDS011;7803;48.130;13.788;2023-07-16T06:08:07;4.53;;;2.97;;
15408;SDS011;7803;48.130;13.788;2023-07-16T06:11:09;2.50;;;2.30;;
15408;SDS011;7803;48.130;13.788;2023-07-16T06:14:11;2.60;;;2.40;;
15408;SDS011;7803;48.130;13.788;2023-07-16T06:17:13;2.83;;;2.53;;
15408;SDS011;7803;48.130;13.788;2023-07-16T06:20:16;2.58;;;2.38;;
15408;SDS011;7803;48.130;13.788;2023-07-16T06:23:19;3.38;;;2.65;;
15408;SDS011;7803;48.130;13.788;2023-07-16T06:26:21;3.80;;;2.72;;
15408;SDS011;7803;48.130;13.788;2023-07-16T06:29:22;2.63;;;2.42;;
15408;SDS011;7803;48.130;13.788;2023-07-16T06:32:24;2.50;;;2.30;;
15408;SDS011;7803;48.130;13.788;2023-07-16T06:35:28;3.13;;;2.67;;
15408;SDS011;7803;48.130;13.788;2023-07-16T06:38:30;4.78;;;2.88;;
15408;SDS011;7803;48.130;13.788;2023-07-16T06:41:32;3.58;;;2.95;;
15408;SDS011;7803;48.130;13.788;2023-07-16T06:44:34;3.55;;;2.90;;
15408;SDS011;7803;48.130;13.788;2023-07-16T06:47:36;3.92;;;3.00;;
15408;SDS011;7803;48.130;13.788;2023-07-16T06:50:39;3.67;;;2.78;;
15408;SDS011;7803;48.130;13.788;2023-07-16T06:53:41;4.45;;;3.30;;
15408;SDS011;7803;48.130;13.788;2023-07-16T06:56:43;6.10;;;3.47;;
15408;SDS011;7803;48.130;13.788;2023-07-16T06:59:45;17.80;;;8.05;;
15408;SDS011;7803;48.130;13.788;2023-07-16T07:02:47;10.60;;;4.80;;
15408;SDS011;7803;48.130;13.788;2023-07-16T07:05:50;12.50;;;6.70;;
15408;SDS011;7803;48.130;13.788;2023-07-16T07:08:52;5.22;;;3.88;;
15408;SDS011;7803;48.130;13.788;2023-07-16T07:11:54;7.80;;;4.60;;
15408;SDS011;7803;48.130;13.788;2023-07-16T07:14:56;4.80;;;4.03;;
15408;SDS011;7803;48.130;13.788;2023-07-16T07:17:58;5.65;;;4.50;;
15408;SDS011;7803;48.130;13.788;2023-07-16T07:21:02;8.98;;;4.82;;
15408;SDS011;7803;48.130;13.788;2023-07-16T07:24:04;7.72;;;4.20;;
15408;SDS011;7803;48.130;13.788;2023-07-16T07:27:06;12.90;;;5.60;;
15408;SDS011;7803;48.130;13.788;2023-07-16T07:30:08;11.23;;;5.47;;
15408;SDS011;7803;48.130;13.788;2023-07-16T07:33:10;9.27;;;5.40;;
15408;SDS011;7803;48.130;13.788;2023-07-16T07:36:14;10.77;;;6.40;;
15408;SDS011;7803;48.130;13.788;2023-07-16T07:39:16;8.35;;;4.95;;
15408;SDS011;7803;48.130;13.788;2023-07-16T07:42:19;7.97;;;4.53;;
15408;SDS011;7803;48.130;13.788;2023-07-16T07:45:20;4.45;;;3.80;;
15408;SDS011;7803;48.130;13.788;2023-07-16T07:48:23;4.40;;;3.00;;
15408;SDS011;7803;48.130;13.788;2023-07-16T07:51:26;4.13;;;3.30;;
15408;SDS011;7803;48.130;13.788;2023-07-16T07:54:28;4.72;;;3.40;;
15408;SDS011;7803;48.130;13.788;2023-07-16T07:57:32;3.78;;;3.15;;
15408;SDS011;7803;48.130;13.788;2023-07-16T08:00:34;3.58;;;2.70;;
15408;SDS011;7803;48.130;13.788;2023-07-16T08:03:36;3.95;;;2.80;;
15408;SDS011;7803;48.130;13.788;2023-07-16T08:06:39;3.97;;;3.00;;
15408;SDS011;7803;48.130;13.788;2023-07-16T08:09:41;3.67;;;2.72;;
15408;SDS011;7803;48.130;13.788;2023-07-16T08:12:43;3.67;;;2.80;;
15408;SDS011;7803;48.130;13.788;2023-07-16T08:15:45;4.65;;;2.90;;
15408;SDS011;7803;48.130;13.788;2023-07-16T08:18:47;4.85;;;2.50;;
15408;SDS011;7803;48.130;13.788;2023-07-16T08:21:51;2.40;;;2.20;;
15408;SDS011;7803;48.130;13.788;2023-07-16T08:24:53;2.70;;;2.38;;
15408;SDS011;7803;48.130;13.788;2023-07-16T08:27:55;2.72;;;2.40;;
15408;SDS011;7803;48.130;13.788;2023-07-16T08:30:57;3.15;;;2.50;;
15408;SDS011;7803;48.130;13.788;2023-07-16T08:33:59;2.47;;;2.28;;
15408;SDS011;7803;48.130;13.788;2023-07-16T08:37:02;2.72;;;2.40;;
15408;SDS011;7803;48.130;13.788;2023-07-16T08:40:05;3.85;;;2.67;;
15408;SDS011;7803;48.130;13.788;2023-07-16T08:43:10;5.28;;;3.15;;
15408;SDS011;7803;48.130;13.788;2023-07-16T08:46:14;3.17;;;2.80;;
15408;SDS011;7803;48.130;13.788;2023-07-16T08:49:17;3.08;;;2.42;;
15408;SDS011;7803;48.130;13.788;2023-07-16T08:52:21;2.70;;;2.50;;
15408;SDS011;7803;48.130;13.788;2023-07-16T08:55:23;2.80;;;2.50;;
15408;SDS011;7803;48.130;13.788;2023-07-16T08:58:25;3.88;;;3.03;;
15408;SDS011;7803;48.130;13.788;2023-07-16T09:01:28;3.88;;;2.70;;
15408;SDS011;7803;48.130;13.788;2023-07-16T09:04:30;3.83;;;2.67;;
15408;SDS011;7803;48.130;13.788;2023-07-16T09:07:35;4.38;;;2.80;;
15408;SDS011;7803;48.130;13.788;2023-07-16T09:10:37;3.90;;;2.60;;
15408;SDS011;7803;48.130;13.788;2023-07-16T09:13:43;3.20;;;2.75;;
15408;SDS011;7803;48.130;13.788;2023-07-16T09:16:48;3.83;;;3.13;;
15408;SDS011;7803;48.130;13.788;2023-07-16T09:19:51;4.25;;;3.22;;
15408;SDS011;7803;48.130;13.788;2023-07-16T09:22:54;3.83;;;2.80;;
15408;SDS011;7803;48.130;13.788;2023-07-16T09:25:56;5.90;;;3.10;;
15408;SDS011;7803;48.130;13.788;2023-07-16T09:28:58;4.03;;;3.30;;
15408;SDS011;7803;48.130;13.788;2023-07-16T09:32:00;16.45;;;3.53;;
15408;SDS011;7803;48.130;13.788;2023-07-16T09:35:06;4.25;;;3.10;;
15408;SDS011;7803;48.130;13.788;2023-07-16T09:38:10;5.82;;;3.00;;
15408;SDS011;7803;48.130;13.788;2023-07-16T09:41:12;8.07;;;3.47;;
15408;SDS011;7803;48.130;13.788;2023-07-16T09:44:15;5.40;;;3.55;;
15408;SDS011;7803;48.130;13.788;2023-07-16T09:47:17;4.80;;;3.17;;
15408;SDS011;7803;48.130;13.788;2023-07-16T09:50:20;3.92;;;3.10;;
15408;SDS011;7803;48.130;13.788;2023-07-16T09:53:25;4.05;;;2.97;;
15408;SDS011;7803;48.130;13.788;2023-07-16T09:56:32;3.60;;;3.05;;
15408;SDS011;7803;48.130;13.788;2023-07-16T09:59:37;4.93;;;2.83;;
15408;SDS011;7803;48.130;13.788;2023-07-16T10:02:39;4.22;;;2.72;;
15408;SDS011;7803;48.130;13.788;2023-07-16T10:05:42;3.80;;;3.20;;
15408;SDS011;7803;48.130;13.788;2023-07-16T10:08:49;3.00;;;2.67;;
15408;SDS011;7803;48.130;13.788;2023-07-16T10:11:51;4.55;;;3.10;;
15408;SDS011;7803;48.130;13.788;2023-07-16T10:14:54;3.90;;;2.83;;
15408;SDS011;7803;48.130;13.788;2023-07-16T10:17:57;4.93;;;2.97;;
15408;SDS011;7803;48.130;13.788;2023-07-16T10:20:59;3.92;;;2.88;;
15408;SDS011;7803;48.130;13.788;2023-07-16T10:24:05;2.88;;;2.67;;
15408;SDS011;7803;48.130;13.788;2023-07-16T10:27:26;2.88;;;2.63;;
15408;SDS011;7803;48.130;13.788;2023-07-16T10:30:29;3.17;;;2.83;;
15408;SDS011;7803;48.130;13.788;2023-07-16T10:33:31;4.78;;;2.65;;
15408;SDS011;7803;48.130;13.788;2023-07-16T10:36:36;3.05;;;2.75;;
15408;SDS011;7803;48.130;13.788;2023-07-16T10:39:45;3.80;;;2.88;;
15408;SDS011;7803;48.130;13.788;2023-07-16T10:42:48;3.83;;;3.03;;
15408;SDS011;7803;48.130;13.788;2023-07-16T10:45:50;3.75;;;3.10;;
15408;SDS011;7803;48.130;13.788;2023-07-16T10:48:52;2.92;;;2.65;;
15408;SDS011;7803;48.130;13.788;2023-07-16T10:51:54;5.20;;;2.83;;
15408;SDS011;7803;48.130;13.788;2023-07-16T10:54:57;3.65;;;2.60;;
15408;SDS011;7803;48.130;13.788;2023-07-16T10:58:03;3.10;;;2.80;;
15408;SDS011;7803;48.130;13.788;2023-07-16T11:01:05;2.88;;;2.63;;
15408;SDS011;7803;48.130;13.788;2023-07-16T11:04:09;2.67;;;2.47;;
15408;SDS011;7803;48.130;13.788;2023-07-16T11:07:12;3.20;;;2.67;;
15408;SDS011;7803;48.130;13.788;2023-07-16T11:10:16;2.92;;;2.65;;
15408;SDS011;7803;48.130;13.788;2023-07-16T11:13:19;3.20;;;2.42;;
15408;SDS011;7803;48.130;13.788;2023-07-16T11:16:21;4.53;;;2.90;;
15408;SDS011;7803;48.130;13.788;2023-07-16T11:19:23;3.08;;;2.78;;
15408;SDS011;7803;48.130;13.788;2023-07-16T11:22:25;2.88;;;2.60;;
15408;SDS011;7803;48.130;13.788;2023-07-16T11:25:29;2.80;;;2.60;;
15408;SDS011;7803;48.130;13.788;2023-07-16T11:28:37;2.97;;;2.60;;
15408;SDS011;7803;48.130;13.788;2023-07-16T11:31:41;4.03;;;2.80;;
15408;SDS011;7803;48.130;13.788;2023-07-16T11:34:51;3.25;;;2.47;;
15408;SDS011;7803;48.130;13.788;2023-07-16T11:37:54;3.33;;;2.95;;
15408;SDS011;7803;48.130;13.788;2023-07-16T11:41:01;3.10;;;2.78;;
15408;SDS011;7803;48.130;13.788;2023-07-16T11:44:03;3.00;;;2.78;;
15408;SDS011;7803;48.130;13.788;2023-07-16T11:47:07;3.00;;;2.80;;
15408;SDS011;7803;48.130;13.788;2023-07-16T11:50:09;2.75;;;2.55;;
15408;SDS011;7803;48.130;13.788;2023-07-16T11:53:11;3.22;;;2.70;;
15408;SDS011;7803;48.130;13.788;2023-07-16T11:56:15;2.90;;;2.70;;
15408;SDS011;7803;48.130;13.788;2023-07-16T11:59:17;3.13;;;2.85;;
15408;SDS011;7803;48.130;13.788;2023-07-16T12:02:20;3.55;;;2.60;;
15408;SDS011;7803;48.130;13.788;2023-07-16T12:05:22;3.53;;;2.88;;
15408;SDS011;7803;48.130;13.788;2023-07-16T12:08:26;3.53;;;2.70;;
15408;SDS011;7803;48.130;13.788;2023-07-16T12:11:31;4.00;;;3.05;;
15408;SDS011;7803;48.130;13.788;2023-07-16T12:14:33;3.22;;;2.72;;
15408;SDS011;7803;48.130;13.788;2023-07-16T12:17:35;4.07;;;2.97;;
15408;SDS011;7803;48.130;13.788;2023-07-16T12:20:37;2.85;;;2.65;;
15408;SDS011;7803;48.130;13.788;2023-07-16T12:23:39;2.95;;;2.63;;
15408;SDS011;7803;48.130;13.788;2023-07-16T12:26:43;3.30;;;3.00;;
15408;SDS011;7803;48.130;13.788;2023-07-16T12:29:45;3.00;;;2.80;;
15408;SDS011;7803;48.130;13.788;2023-07-16T12:32:47;3.17;;;2.88;;
15408;SDS011;7803;48.130;13.788;2023-07-16T12:35:49;3.22;;;2.92;;
15408;SDS011;7803;48.130;13.788;2023-07-16T12:38:51;4.38;;;2.70;;
15408;SDS011;7803;48.130;13.788;2023-07-16T12:41:54;3.85;;;2.72;;
15408;SDS011;7803;48.130;13.788;2023-07-16T12:44:56;3.55;;;3.00;;
15408;SDS011;7803;48.130;13.788;2023-07-16T12:47:58;4.35;;;3.10;;
15408;SDS011;7803;48.130;13.788;2023-07-16T12:51:00;4.20;;;3.15;;
15408;SDS011;7803;48.130;13.788;2023-07-16T12:54:05;5.40;;;2.85;;
15408;SDS011;7803;48.130;13.788;2023-07-16T12:57:08;3.22;;;2.92;;
15408;SDS011;7803;48.130;13.788;2023-07-16T13:00:11;3.42;;;3.00;;
15408;SDS011;7803;48.130;13.788;2023-07-16T13:03:14;3.45;;;3.00;;
15408;SDS011;7803;48.130;13.788;2023-07-16T13:06:17;5.13;;;2.78;;
15408;SDS011;7803;48.130;13.788;2023-07-16T13:09:21;3.30;;;2.80;;
15408;SDS011;7803;48.130;13.788;2023-07-16T13:12:26;2.80;;;2.55;;
15408;SDS011;7803;48.130;13.788;2023-07-16T13:15:29;2.72;;;2.53;;
15408;SDS011;7803;48.130;13.788;2023-07-16T13:18:31;3.05;;;2.65;;
15408;SDS011;7803;48.130;13.788;2023-07-16T13:21:34;3.53;;;2.75;;
15408;SDS011;7803;48.130;13.788;2023-07-16T13:24:38;3.90;;;2.65;;
15408;SDS011;7803;48.130;13.788;2023-07-16T13:27:43;4.57;;;2.50;;
15408;SDS011;7803;48.130;13.788;2023-07-16T13:30:47;7.68;;;2.75;;
15408;SDS011;7803;48.130;13.788;2023-07-16T13:33:52;4.60;;;2.90;;
15408;SDS011;7803;48.130;13.788;2023-07-16T13:36:56;2.90;;;2.53;;
15408;SDS011;7803;48.130;13.788;2023-07-16T13:39:59;4.13;;;2.47;;
15408;SDS011;7803;48.130;13.788;2023-07-16T13:43:05;2.80;;;2.60;;
15408;SDS011;7803;48.130;13.788;2023-07-16T13:46:09;5.30;;;3.28;;
15408;SDS011;7803;48.130;13.788;2023-07-16T13:49:12;4.93;;;3.10;;
15408;SDS011;7803;48.130;13.788;2023-07-16T13:52:16;2.80;;;2.55;;
15408;SDS011;7803;48.130;13.788;2023-07-16T13:55:20;3.00;;;2.70;;
15408;SDS011;7803;48.130;13.788;2023-07-16T13:58:26;4.28;;;2.83;;
15408;SDS011;7803;48.130;13.788;2023-07-16T14:01:29;3.50;;;2.70;;
15408;SDS011;7803;48.130;13.788;2023-07-16T14:04:33;3.33;;;2.63;;
15408;SDS011;7803;48.130;13.788;2023-07-16T14:07:36;2.67;;;2.45;;
15408;SDS011;7803;48.130;13.788;2023-07-16T14:10:40;4.45;;;2.58;;
15408;SDS011;7803;48.130;13.788;2023-07-16T14:13:45;3.38;;;2.63;;
15408;SDS011;7803;48.130;13.788;2023-07-16T14:16:51;3.63;;;2.60;;
15408;SDS011;7803;48.130;13.788;2023-07-16T14:19:56;4.53;;;3.22;;
15408;SDS011;7803;48.130;13.788;2023-07-16T14:22:59;3.55;;;2.88;;
15408;SDS011;7803;48.130;13.788;2023-07-16T14:26:04;3.15;;;2.67;;
15408;SDS011;7803;48.130;13.788;2023-07-16T14:29:09;2.60;;;2.40;;
15408;SDS011;7803;48.130;13.788;2023-07-16T14:32:13;2.70;;;2.50;;
15408;SDS011;7803;48.130;13.788;2023-07-16T14:35:17;3.05;;;2.65;;
15408;SDS011;7803;48.130;13.788;2023-07-16T14:38:20;3.42;;;2.70;;
15408;SDS011;7803;48.130;13.788;2023-07-16T14:41:24;2.88;;;2.40;;
15408;SDS011;7803;48.130;13.788;2023-07-16T14:44:29;2.92;;;2.45;;
15408;SDS011;7803;48.130;13.788;2023-07-16T14:47:33;4.35;;;3.03;;
15408;SDS011;7803;48.130;13.788;2023-07-16T14:50:36;4.32;;;2.70;;
15408;SDS011;7803;48.130;13.788;2023-07-16T14:53:40;3.25;;;2.90;;
15408;SDS011;7803;48.130;13.788;2023-07-16T14:56:43;3.20;;;2.40;;
15408;SDS011;7803;48.130;13.788;2023-07-16T14:59:48;3.08;;;2.70;;
15408;SDS011;7803;48.130;13.788;2023-07-16T15:02:52;3.00;;;2.70;;
15408;SDS011;7803;48.130;13.788;2023-07-16T15:05:56;2.55;;;2.30;;
15408;SDS011;7803;48.130;13.788;2023-07-16T15:09:00;3.20;;;2.50;;
15408;SDS011;7803;48.130;13.788;2023-07-16T15:12:04;2.95;;;2.33;;
15408;SDS011;7803;48.130;13.788;2023-07-16T15:15:11;2.50;;;2.30;;
15408;SDS011;7803;48.130;13.788;2023-07-16T15:18:15;3.50;;;2.60;;
15408;SDS011;7803;48.130;13.788;2023-07-16T15:21:19;4.68;;;2.65;;
15408;SDS011;7803;48.130;13.788;2023-07-16T15:24:23;4.35;;;3.15;;
15408;SDS011;7803;48.130;13.788;2023-07-16T15:27:26;3.72;;;2.80;;
15408;SDS011;7803;48.130;13.788;2023-07-16T15:30:31;3.15;;;2.63;;
15408;SDS011;7803;48.130;13.788;2023-07-16T15:33:35;2.70;;;2.50;;
15408;SDS011;7803;48.130;13.788;2023-07-16T15:36:39;3.00;;;2.70;;
15408;SDS011;7803;48.130;13.788;2023-07-16T15:39:43;2.60;;;2.40;;
15408;SDS011;7803;48.130;13.788;2023-07-16T15:42:47;2.80;;;2.60;;
15408;SDS011;7803;48.130;13.788;2023-07-16T15:45:54;2.63;;;2.40;;
15408;SDS011;7803;48.130;13.788;2023-07-16T15:48:58;3.55;;;2.55;;
15408;SDS011;7803;48.130;13.788;2023-07-16T15:52:01;2.75;;;2.50;;
15408;SDS011;7803;48.130;13.788;2023-07-16T15:55:05;2.50;;;2.30;;
15408;SDS011;7803;48.130;13.788;2023-07-16T15:58:09;2.72;;;2.50;;
15408;SDS011;7803;48.130;13.788;2023-07-16T16:01:14;3.05;;;2.40;;
15408;SDS011;7803;48.130;13.788;2023-07-16T16:04:18;2.88;;;2.55;;
15408;SDS011;7803;48.130;13.788;2023-07-16T16:07:22;3.78;;;2.70;;
15408;SDS011;7803;48.130;13.788;2023-07-16T16:10:25;2.55;;;2.35;;
15408;SDS011;7803;48.130;13.788;2023-07-16T16:13:29;3.20;;;2.72;;
15408;SDS011;7803;48.130;13.788;2023-07-16T16:16:34;2.67;;;2.45;;
15408;SDS011;7803;48.130;13.788;2023-07-16T16:19:38;3.00;;;2.50;;
15408;SDS011;7803;48.130;13.788;2023-07-16T16:22:42;3.03;;;2.40;;
15408;SDS011;7803;48.130;13.788;2023-07-16T16:25:46;2.65;;;2.42;;
15408;SDS011;7803;48.130;13.788;2023-07-16T16:28:50;2.58;;;2.38;;
15408;SDS011;7803;48.130;13.788;2023-07-16T16:31:55;2.70;;;2.50;;
15408;SDS011;7803;48.130;13.788;2023-07-16T16:34:59;2.97;;;2.58;;
15408;SDS011;7803;48.130;13.788;2023-07-16T16:38:02;2.85;;;2.53;;
15408;SDS011;7803;48.130;13.788;2023-07-16T16:41:06;3.60;;;2.75;;
15408;SDS011;7803;48.130;13.788;2023-07-16T16:44:10;2.78;;;2.58;;
15408;SDS011;7803;48.130;13.788;2023-07-16T16:47:16;3.00;;;2.70;;
15408;SDS011;7803;48.130;13.788;2023-07-16T16:50:19;2.75;;;2.50;;
15408;SDS011;7803;48.130;13.788;2023-07-16T16:53:23;2.85;;;2.60;;
15408;SDS011;7803;48.130;13.788;2023-07-16T16:56:27;2.63;;;2.42;;
15408;SDS011;7803;48.130;13.788;2023-07-16T16:59:31;2.42;;;2.22;;
15408;SDS011;7803;48.130;13.788;2023-07-16T17:02:37;2.70;;;2.50;;
15408;SDS011;7803;48.130;13.788;2023-07-16T17:05:41;2.30;;;2.10;;
15408;SDS011;7803;48.130;13.788;2023-07-16T17:08:50;3.25;;;2.50;;
15408;SDS011;7803;48.130;13.788;2023-07-16T17:11:54;2.60;;;2.40;;
15408;SDS011;7803;48.130;13.788;2023-07-16T17:14:57;3.20;;;2.65;;
15408;SDS011;7803;48.130;13.788;2023-07-16T17:18:03;2.70;;;2.50;;
15408;SDS011;7803;48.130;13.788;2023-07-16T17:21:09;2.70;;;2.47;;
15408;SDS011;7803;48.130;13.788;2023-07-16T17:24:12;2.78;;;2.58;;
15408;SDS011;7803;48.130;13.788;2023-07-16T17:27:14;2.63;;;2.42;;
15408;SDS011;7803;48.130;13.788;2023-07-16T17:30:16;2.83;;;2.58;;
15408;SDS011;7803;48.130;13.788;2023-07-16T17:33:20;2.55;;;2.35;;
15408;SDS011;7803;48.130;13.788;2023-07-16T17:36:23;4.30;;;2.80;;
15408;SDS011;7803;48.130;13.788;2023-07-16T17:39:25;2.70;;;2.42;;
15408;SDS011;7803;48.130;13.788;2023-07-16T17:42:27;2.47;;;2.28;;
15408;SDS011;7803;48.130;13.788;2023-07-16T17:45:29;5.25;;;2.30;;
15408;SDS011;7803;48.130;13.788;2023-07-16T17:48:33;4.03;;;2.70;;
15408;SDS011;7803;48.130;13.788;2023-07-16T17:51:35;3.45;;;2.40;;
15408;SDS011;7803;48.130;13.788;2023-07-16T17:54:38;2.60;;;2.40;;
15408;SDS011;7803;48.130;13.788;2023-07-16T17:57:40;3.25;;;2.85;;
15408;SDS011;7803;48.130;13.788;2023-07-16T18:00:42;5.82;;;2.63;;
15408;SDS011;7803;48.130;13.788;2023-07-16T18:03:46;6.72;;;3.45;;
15408;SDS011;7803;48.130;13.788;2023-07-16T18:06:49;4.70;;;2.60;;
15408;SDS011;7803;48.130;13.788;2023-07-16T18:09:52;6.68;;;2.92;;
15408;SDS011;7803;48.130;13.788;2023-07-16T18:12:55;2.80;;;2.50;;
15408;SDS011;7803;48.130;13.788;2023-07-16T18:15:59;3.50;;;2.50;;
15408;SDS011;7803;48.130;13.788;2023-07-16T18:19:03;4.13;;;2.58;;
15408;SDS011;7803;48.130;13.788;2023-07-16T18:22:06;3.95;;;2.42;;
15408;SDS011;7803;48.130;13.788;2023-07-16T18:25:10;3.80;;;2.67;;